sensor_id;sensor_type;location;lat;lon;timestamp;P1;durP1;ratioP1;P2;durP2;ratioP2
71975;SDS011;68326;52.124;5.424;2023-04-23T00:01:40;36.67;;;16.65;;
71975;SDS011;68326;52.124;5.424;2023-04-23T00:04:07;36.15;;;16.00;;
71975;SDS011;68326;52.124;5.424;2023-04-23T00:06:35;37.25;;;16.33;;
71975;SDS011;68326;52.124;5.424;2023-04-23T00:09:01;37.13;;;17.03;;
71975;SDS011;68326;52.124;5.424;2023-04-23T00:11:29;41.33;;;17.55;;
71975;SDS011;68326;52.124;5.424;2023-04-23T00:13:56;39.50;;;16.88;;
71975;SDS011;68326;52.124;5.424;2023-04-23T00:16:22;37.10;;;16.10;;
71975;SDS011;68326;52.124;5.424;2023-04-23T00:18:50;34.00;;;15.63;;
71975;SDS011;68326;52.124;5.424;2023-04-23T00:21:16;43.47;;;14.87;;
71975;SDS011;68326;52.124;5.424;2023-04-23T00:23:42;36.90;;;15.15;;
71975;SDS011;68326;52.124;5.424;2023-04-23T00:26:09;40.90;;;16.20;;
71975;SDS011;68326;52.124;5.424;2023-04-23T00:28:35;35.72;;;16.75;;
71975;SDS011;68326;52.124;5.424;2023-04-23T00:31:02;38.22;;;16.42;;
71975;SDS011;68326;52.124;5.424;2023-04-23T00:33:28;38.23;;;16.10;;
71975;SDS011;68326;52.124;5.424;2023-04-23T00:35:55;39.38;;;17.55;;
71975;SDS011;68326;52.124;5.424;2023-04-23T00:38:22;36.92;;;15.95;;
71975;SDS011;68326;52.124;5.424;2023-04-23T00:40:48;36.63;;;16.65;;
71975;SDS011;68326;52.124;5.424;2023-04-23T00:43:15;42.83;;;17.35;;
71975;SDS011;68326;52.124;5.424;2023-04-23T00:45:42;37.63;;;15.60;;
71975;SDS011;68326;52.124;5.424;2023-04-23T00:48:10;36.08;;;16.27;;
71975;SDS011;68326;52.124;5.424;2023-04-23T00:50:37;44.05;;;18.40;;
71975;SDS011;68326;52.124;5.424;2023-04-23T00:53:03;39.63;;;16.33;;
71975;SDS011;68326;52.124;5.424;2023-04-23T00:55:31;40.78;;;16.15;;
71975;SDS011;68326;52.124;5.424;2023-04-23T00:57:58;37.00;;;16.00;;
71975;SDS011;68326;52.124;5.424;2023-04-23T01:00:24;41.20;;;17.05;;
71975;SDS011;68326;52.124;5.424;2023-04-23T01:02:51;39.03;;;16.80;;
71975;SDS011;68326;52.124;5.424;2023-04-23T01:05:18;37.38;;;16.38;;
71975;SDS011;68326;52.124;5.424;2023-04-23T01:07:47;36.92;;;16.50;;
71975;SDS011;68326;52.124;5.424;2023-04-23T01:10:14;37.43;;;15.93;;
71975;SDS011;68326;52.124;5.424;2023-04-23T01:12:42;33.05;;;14.55;;
71975;SDS011;68326;52.124;5.424;2023-04-23T01:15:08;32.38;;;15.75;;
71975;SDS011;68326;52.124;5.424;2023-04-23T01:17:35;33.33;;;14.90;;
71975;SDS011;68326;52.124;5.424;2023-04-23T01:20:02;35.70;;;15.68;;
71975;SDS011;68326;52.124;5.424;2023-04-23T01:22:32;41.50;;;16.63;;
71975;SDS011;68326;52.124;5.424;2023-04-23T01:25:00;34.25;;;16.45;;
71975;SDS011;68326;52.124;5.424;2023-04-23T01:27:28;36.97;;;16.08;;
71975;SDS011;68326;52.124;5.424;2023-04-23T01:29:54;37.53;;;16.92;;
71975;SDS011;68326;52.124;5.424;2023-04-23T01:32:22;39.72;;;16.27;;
71975;SDS011;68326;52.124;5.424;2023-04-23T01:34:48;37.63;;;15.57;;
71975;SDS011;68326;52.124;5.424;2023-04-23T01:37:16;36.05;;;15.25;;
71975;SDS011;68326;52.124;5.424;2023-04-23T01:39:43;36.72;;;16.02;;
71975;SDS011;68326;52.124;5.424;2023-04-23T01:42:10;38.42;;;16.63;;
71975;SDS011;68326;52.124;5.424;2023-04-23T01:44:36;42.38;;;18.73;;
71975;SDS011;68326;52.124;5.424;2023-04-23T01:47:03;40.03;;;18.50;;
71975;SDS011;68326;52.124;5.424;2023-04-23T01:49:32;44.83;;;18.00;;
71975;SDS011;68326;52.124;5.424;2023-04-23T01:51:58;45.58;;;19.30;;
71975;SDS011;68326;52.124;5.424;2023-04-23T01:54:25;45.83;;;18.23;;
71975;SDS011;68326;52.124;5.424;2023-04-23T01:56:51;41.65;;;19.02;;
71975;SDS011;68326;52.124;5.424;2023-04-23T01:59:20;45.70;;;18.60;;
71975;SDS011;68326;52.124;5.424;2023-04-23T02:01:48;44.78;;;18.10;;
71975;SDS011;68326;52.124;5.424;2023-04-23T02:04:15;43.00;;;18.20;;
71975;SDS011;68326;52.124;5.424;2023-04-23T02:06:43;44.15;;;17.83;;
71975;SDS011;68326;52.124;5.424;2023-04-23T02:09:13;38.30;;;16.77;;
71975;SDS011;68326;52.124;5.424;2023-04-23T02:11:39;40.37;;;17.10;;
71975;SDS011;68326;52.124;5.424;2023-04-23T02:14:07;44.78;;;18.83;;
71975;SDS011;68326;52.124;5.424;2023-04-23T02:16:34;43.03;;;18.60;;
71975;SDS011;68326;52.124;5.424;2023-04-23T02:19:01;43.20;;;17.88;;
71975;SDS011;68326;52.124;5.424;2023-04-23T02:21:27;44.50;;;17.55;;
71975;SDS011;68326;52.124;5.424;2023-04-23T02:23:54;40.80;;;18.77;;
71975;SDS011;68326;52.124;5.424;2023-04-23T02:26:21;42.63;;;17.90;;
71975;SDS011;68326;52.124;5.424;2023-04-23T02:28:48;42.33;;;18.63;;
71975;SDS011;68326;52.124;5.424;2023-04-23T02:31:14;44.13;;;18.85;;
71975;SDS011;68326;52.124;5.424;2023-04-23T02:33:41;44.28;;;18.55;;
71975;SDS011;68326;52.124;5.424;2023-04-23T02:36:08;47.43;;;19.57;;
71975;SDS011;68326;52.124;5.424;2023-04-23T02:38:38;47.60;;;18.95;;
71975;SDS011;68326;52.124;5.424;2023-04-23T02:41:10;50.67;;;19.80;;
71975;SDS011;68326;52.124;5.424;2023-04-23T02:43:37;43.53;;;18.00;;
71975;SDS011;68326;52.124;5.424;2023-04-23T02:46:03;44.53;;;19.15;;
71975;SDS011;68326;52.124;5.424;2023-04-23T02:48:37;46.23;;;17.97;;
71975;SDS011;68326;52.124;5.424;2023-04-23T02:51:06;40.50;;;17.10;;
71975;SDS011;68326;52.124;5.424;2023-04-23T02:53:35;43.53;;;18.13;;
71975;SDS011;68326;52.124;5.424;2023-04-23T02:56:01;44.15;;;18.98;;
71975;SDS011;68326;52.124;5.424;2023-04-23T02:58:28;43.92;;;19.02;;
71975;SDS011;68326;52.124;5.424;2023-04-23T03:00:55;43.60;;;18.20;;
71975;SDS011;68326;52.124;5.424;2023-04-23T03:03:22;45.80;;;18.33;;
71975;SDS011;68326;52.124;5.424;2023-04-23T03:05:52;40.92;;;17.20;;
71975;SDS011;68326;52.124;5.424;2023-04-23T03:08:18;41.00;;;18.23;;
71975;SDS011;68326;52.124;5.424;2023-04-23T03:10:45;44.97;;;18.23;;
71975;SDS011;68326;52.124;5.424;2023-04-23T03:13:11;43.83;;;19.37;;
71975;SDS011;68326;52.124;5.424;2023-04-23T03:15:38;41.67;;;17.58;;
71975;SDS011;68326;52.124;5.424;2023-04-23T03:18:05;41.28;;;17.67;;
71975;SDS011;68326;52.124;5.424;2023-04-23T03:20:34;41.60;;;19.05;;
71975;SDS011;68326;52.124;5.424;2023-04-23T03:23:01;41.15;;;17.85;;
71975;SDS011;68326;52.124;5.424;2023-04-23T03:25:31;39.03;;;16.93;;
71975;SDS011;68326;52.124;5.424;2023-04-23T03:27:58;40.03;;;16.83;;
71975;SDS011;68326;52.124;5.424;2023-04-23T03:30:26;35.83;;;15.20;;
71975;SDS011;68326;52.124;5.424;2023-04-23T03:32:54;36.35;;;15.63;;
71975;SDS011;68326;52.124;5.424;2023-04-23T03:35:22;36.83;;;15.50;;
71975;SDS011;68326;52.124;5.424;2023-04-23T03:37:49;40.70;;;15.43;;
71975;SDS011;68326;52.124;5.424;2023-04-23T03:40:16;34.63;;;14.45;;
71975;SDS011;68326;52.124;5.424;2023-04-23T03:42:42;31.45;;;15.32;;
71975;SDS011;68326;52.124;5.424;2023-04-23T03:45:08;35.50;;;15.57;;
71975;SDS011;68326;52.124;5.424;2023-04-23T03:47:36;33.15;;;15.05;;
71975;SDS011;68326;52.124;5.424;2023-04-23T03:50:03;34.00;;;14.90;;
71975;SDS011;68326;52.124;5.424;2023-04-23T03:52:29;30.30;;;14.20;;
71975;SDS011;68326;52.124;5.424;2023-04-23T03:54:56;30.23;;;13.93;;
71975;SDS011;68326;52.124;5.424;2023-04-23T03:57:23;32.03;;;13.82;;
71975;SDS011;68326;52.124;5.424;2023-04-23T03:59:49;29.98;;;13.10;;
71975;SDS011;68326;52.124;5.424;2023-04-23T04:02:16;31.47;;;13.80;;
71975;SDS011;68326;52.124;5.424;2023-04-23T04:04:42;30.40;;;13.80;;
71975;SDS011;68326;52.124;5.424;2023-04-23T04:07:11;32.83;;;14.38;;
71975;SDS011;68326;52.124;5.424;2023-04-23T04:09:38;34.35;;;13.98;;
71975;SDS011;68326;52.124;5.424;2023-04-23T04:12:04;34.25;;;14.23;;
71975;SDS011;68326;52.124;5.424;2023-04-23T04:14:31;32.93;;;13.53;;
71975;SDS011;68326;52.124;5.424;2023-04-23T04:16:58;35.67;;;14.23;;
71975;SDS011;68326;52.124;5.424;2023-04-23T04:19:25;34.38;;;14.77;;
71975;SDS011;68326;52.124;5.424;2023-04-23T04:21:51;31.77;;;14.85;;
71975;SDS011;68326;52.124;5.424;2023-04-23T04:24:18;29.55;;;13.55;;
71975;SDS011;68326;52.124;5.424;2023-04-23T04:26:44;28.33;;;12.87;;
71975;SDS011;68326;52.124;5.424;2023-04-23T04:29:11;33.08;;;13.75;;
71975;SDS011;68326;52.124;5.424;2023-04-23T04:31:37;30.92;;;14.38;;
71975;SDS011;68326;52.124;5.424;2023-04-23T04:34:04;29.35;;;13.27;;
71975;SDS011;68326;52.124;5.424;2023-04-23T04:36:32;23.83;;;13.05;;
71975;SDS011;68326;52.124;5.424;2023-04-23T04:39:00;27.57;;;13.17;;
71975;SDS011;68326;52.124;5.424;2023-04-23T04:41:28;26.55;;;12.90;;
71975;SDS011;68326;52.124;5.424;2023-04-23T04:43:54;27.92;;;13.88;;
71975;SDS011;68326;52.124;5.424;2023-04-23T04:46:21;29.42;;;12.68;;
71975;SDS011;68326;52.124;5.424;2023-04-23T04:48:48;27.90;;;12.10;;
71975;SDS011;68326;52.124;5.424;2023-04-23T04:51:15;27.07;;;13.00;;
71975;SDS011;68326;52.124;5.424;2023-04-23T04:53:41;27.33;;;13.80;;
71975;SDS011;68326;52.124;5.424;2023-04-23T04:56:08;25.92;;;12.40;;
71975;SDS011;68326;52.124;5.424;2023-04-23T04:58:34;25.83;;;12.52;;
71975;SDS011;68326;52.124;5.424;2023-04-23T05:01:01;25.27;;;12.10;;
71975;SDS011;68326;52.124;5.424;2023-04-23T05:03:28;24.87;;;12.27;;
71975;SDS011;68326;52.124;5.424;2023-04-23T05:05:55;24.38;;;12.32;;
71975;SDS011;68326;52.124;5.424;2023-04-23T05:08:21;26.48;;;12.27;;
71975;SDS011;68326;52.124;5.424;2023-04-23T05:10:48;25.95;;;12.80;;
71975;SDS011;68326;52.124;5.424;2023-04-23T05:13:19;27.05;;;13.25;;
71975;SDS011;68326;52.124;5.424;2023-04-23T05:15:45;26.90;;;12.87;;
71975;SDS011;68326;52.124;5.424;2023-04-23T05:18:12;24.35;;;11.65;;
71975;SDS011;68326;52.124;5.424;2023-04-23T05:20:38;23.50;;;12.15;;
71975;SDS011;68326;52.124;5.424;2023-04-23T05:23:06;27.92;;;12.98;;
71975;SDS011;68326;52.124;5.424;2023-04-23T05:25:32;22.88;;;11.77;;
71975;SDS011;68326;52.124;5.424;2023-04-23T05:28:00;25.07;;;12.60;;
71975;SDS011;68326;52.124;5.424;2023-04-23T05:30:27;23.15;;;11.82;;
71975;SDS011;68326;52.124;5.424;2023-04-23T05:32:54;22.35;;;12.18;;
71975;SDS011;68326;52.124;5.424;2023-04-23T05:35:20;22.15;;;11.50;;
71975;SDS011;68326;52.124;5.424;2023-04-23T05:37:47;23.23;;;11.85;;
71975;SDS011;68326;52.124;5.424;2023-04-23T05:40:13;25.47;;;13.00;;
71975;SDS011;68326;52.124;5.424;2023-04-23T05:42:40;25.45;;;12.13;;
71975;SDS011;68326;52.124;5.424;2023-04-23T05:45:06;23.40;;;12.65;;
71975;SDS011;68326;52.124;5.424;2023-04-23T05:47:34;26.65;;;12.25;;
71975;SDS011;68326;52.124;5.424;2023-04-23T05:50:01;22.67;;;11.85;;
71975;SDS011;68326;52.124;5.424;2023-04-23T05:52:28;24.00;;;11.33;;
71975;SDS011;68326;52.124;5.424;2023-04-23T05:54:58;25.00;;;12.57;;
71975;SDS011;68326;52.124;5.424;2023-04-23T05:57:24;24.23;;;12.50;;
71975;SDS011;68326;52.124;5.424;2023-04-23T05:59:51;23.52;;;12.63;;
71975;SDS011;68326;52.124;5.424;2023-04-23T06:02:18;23.90;;;12.32;;
71975;SDS011;68326;52.124;5.424;2023-04-23T06:04:46;23.67;;;11.50;;
71975;SDS011;68326;52.124;5.424;2023-04-23T06:07:14;21.90;;;11.60;;
71975;SDS011;68326;52.124;5.424;2023-04-23T06:09:40;23.45;;;12.13;;
71975;SDS011;68326;52.124;5.424;2023-04-23T06:12:08;22.98;;;11.52;;
71975;SDS011;68326;52.124;5.424;2023-04-23T06:14:35;25.48;;;12.10;;
71975;SDS011;68326;52.124;5.424;2023-04-23T06:17:02;24.63;;;12.37;;
71975;SDS011;68326;52.124;5.424;2023-04-23T06:19:28;22.67;;;12.32;;
71975;SDS011;68326;52.124;5.424;2023-04-23T06:21:55;19.13;;;11.00;;
71975;SDS011;68326;52.124;5.424;2023-04-23T06:24:21;21.17;;;11.52;;
71975;SDS011;68326;52.124;5.424;2023-04-23T06:26:48;20.42;;;10.60;;
71975;SDS011;68326;52.124;5.424;2023-04-23T06:29:14;19.60;;;10.80;;
71975;SDS011;68326;52.124;5.424;2023-04-23T06:31:41;18.83;;;10.93;;
71975;SDS011;68326;52.124;5.424;2023-04-23T06:34:07;20.20;;;10.55;;
71975;SDS011;68326;52.124;5.424;2023-04-23T06:36:34;18.42;;;10.93;;
71975;SDS011;68326;52.124;5.424;2023-04-23T06:39:00;17.52;;;10.25;;
71975;SDS011;68326;52.124;5.424;2023-04-23T06:41:27;17.70;;;10.40;;
71975;SDS011;68326;52.124;5.424;2023-04-23T06:43:53;18.38;;;10.73;;
71975;SDS011;68326;52.124;5.424;2023-04-23T06:46:20;17.48;;;9.52;;
71975;SDS011;68326;52.124;5.424;2023-04-23T06:48:46;19.13;;;10.20;;
71975;SDS011;68326;52.124;5.424;2023-04-23T06:51:13;17.45;;;10.07;;
71975;SDS011;68326;52.124;5.424;2023-04-23T06:53:40;17.07;;;9.67;;
71975;SDS011;68326;52.124;5.424;2023-04-23T06:56:06;17.00;;;9.63;;
71975;SDS011;68326;52.124;5.424;2023-04-23T06:58:33;15.35;;;9.18;;
71975;SDS011;68326;52.124;5.424;2023-04-23T07:01:00;16.83;;;8.93;;
71975;SDS011;68326;52.124;5.424;2023-04-23T07:03:29;14.60;;;8.18;;
71975;SDS011;68326;52.124;5.424;2023-04-23T07:05:58;14.67;;;8.03;;
71975;SDS011;68326;52.124;5.424;2023-04-23T07:08:25;15.85;;;7.97;;
71975;SDS011;68326;52.124;5.424;2023-04-23T07:10:51;14.82;;;8.52;;
71975;SDS011;68326;52.124;5.424;2023-04-23T07:13:18;14.07;;;8.55;;
71975;SDS011;68326;52.124;5.424;2023-04-23T07:15:45;13.00;;;8.13;;
71975;SDS011;68326;52.124;5.424;2023-04-23T07:18:11;13.90;;;8.47;;
71975;SDS011;68326;52.124;5.424;2023-04-23T07:20:38;11.25;;;7.15;;
71975;SDS011;68326;52.124;5.424;2023-04-23T07:23:05;16.48;;;8.80;;
71975;SDS011;68326;52.124;5.424;2023-04-23T07:25:31;13.30;;;7.90;;
71975;SDS011;68326;52.124;5.424;2023-04-23T07:27:58;11.98;;;7.90;;
71975;SDS011;68326;52.124;5.424;2023-04-23T07:30:25;11.70;;;7.20;;
71975;SDS011;68326;52.124;5.424;2023-04-23T07:32:52;12.82;;;7.35;;
71975;SDS011;68326;52.124;5.424;2023-04-23T07:35:19;12.55;;;7.25;;
71975;SDS011;68326;52.124;5.424;2023-04-23T07:37:45;10.07;;;6.13;;
71975;SDS011;68326;52.124;5.424;2023-04-23T07:40:12;11.30;;;6.88;;
71975;SDS011;68326;52.124;5.424;2023-04-23T07:42:39;11.00;;;6.33;;
71975;SDS011;68326;52.124;5.424;2023-04-23T07:45:05;8.68;;;5.35;;
71975;SDS011;68326;52.124;5.424;2023-04-23T07:47:32;12.77;;;6.22;;
71975;SDS011;68326;52.124;5.424;2023-04-23T07:49:58;12.68;;;6.15;;
71975;SDS011;68326;52.124;5.424;2023-04-23T07:52:25;11.15;;;5.95;;
71975;SDS011;68326;52.124;5.424;2023-04-23T07:54:51;10.23;;;5.47;;
71975;SDS011;68326;52.124;5.424;2023-04-23T07:57:18;8.93;;;5.20;;
71975;SDS011;68326;52.124;5.424;2023-04-23T07:59:45;8.00;;;4.90;;
71975;SDS011;68326;52.124;5.424;2023-04-23T08:02:12;9.18;;;4.10;;
71975;SDS011;68326;52.124;5.424;2023-04-23T08:04:38;10.07;;;5.10;;
71975;SDS011;68326;52.124;5.424;2023-04-23T08:07:05;10.00;;;4.50;;
71975;SDS011;68326;52.124;5.424;2023-04-23T08:09:31;9.48;;;4.70;;
71975;SDS011;68326;52.124;5.424;2023-04-23T08:11:58;7.43;;;4.75;;
71975;SDS011;68326;52.124;5.424;2023-04-23T08:14:24;9.82;;;4.53;;
71975;SDS011;68326;52.124;5.424;2023-04-23T08:16:50;7.75;;;4.47;;
71975;SDS011;68326;52.124;5.424;2023-04-23T08:19:17;9.17;;;3.70;;
71975;SDS011;68326;52.124;5.424;2023-04-23T08:21:43;9.85;;;4.00;;
71975;SDS011;68326;52.124;5.424;2023-04-23T08:24:10;8.63;;;4.32;;
71975;SDS011;68326;52.124;5.424;2023-04-23T08:26:36;7.60;;;3.83;;
71975;SDS011;68326;52.124;5.424;2023-04-23T08:29:02;7.72;;;3.90;;
71975;SDS011;68326;52.124;5.424;2023-04-23T08:31:30;6.77;;;3.50;;
71975;SDS011;68326;52.124;5.424;2023-04-23T08:33:56;9.13;;;3.50;;
71975;SDS011;68326;52.124;5.424;2023-04-23T08:36:23;9.68;;;3.60;;
71975;SDS011;68326;52.124;5.424;2023-04-23T08:38:51;8.90;;;3.83;;
71975;SDS011;68326;52.124;5.424;2023-04-23T08:41:17;9.98;;;3.63;;
71975;SDS011;68326;52.124;5.424;2023-04-23T08:43:50;7.20;;;3.60;;
71975;SDS011;68326;52.124;5.424;2023-04-23T08:46:37;10.65;;;3.78;;
71975;SDS011;68326;52.124;5.424;2023-04-23T08:49:08;6.40;;;2.83;;
71975;SDS011;68326;52.124;5.424;2023-04-23T08:52:06;8.63;;;3.55;;
71975;SDS011;68326;52.124;5.424;2023-04-23T08:54:44;6.30;;;3.05;;
71975;SDS011;68326;52.124;5.424;2023-04-23T08:57:14;6.57;;;3.40;;
71975;SDS011;68326;52.124;5.424;2023-04-23T08:59:42;7.93;;;3.45;;
71975;SDS011;68326;52.124;5.424;2023-04-23T09:02:09;6.25;;;3.22;;
71975;SDS011;68326;52.124;5.424;2023-04-23T09:04:36;7.00;;;3.95;;
71975;SDS011;68326;52.124;5.424;2023-04-23T09:07:04;7.50;;;3.65;;
71975;SDS011;68326;52.124;5.424;2023-04-23T09:09:33;6.27;;;3.47;;
71975;SDS011;68326;52.124;5.424;2023-04-23T09:12:00;7.18;;;3.60;;
71975;SDS011;68326;52.124;5.424;2023-04-23T09:14:27;8.32;;;3.20;;
71975;SDS011;68326;52.124;5.424;2023-04-23T09:16:53;5.80;;;2.67;;
71975;SDS011;68326;52.124;5.424;2023-04-23T09:19:20;5.28;;;2.72;;
71975;SDS011;68326;52.124;5.424;2023-04-23T09:21:46;4.63;;;2.60;;
71975;SDS011;68326;52.124;5.424;2023-04-23T09:24:13;7.32;;;2.78;;
71975;SDS011;68326;52.124;5.424;2023-04-23T09:26:43;8.57;;;2.90;;
71975;SDS011;68326;52.124;5.424;2023-04-23T09:29:12;4.18;;;2.20;;
71975;SDS011;68326;52.124;5.424;2023-04-23T09:31:47;7.68;;;2.83;;
71975;SDS011;68326;52.124;5.424;2023-04-23T09:34:18;5.53;;;1.87;;
71975;SDS011;68326;52.124;5.424;2023-04-23T09:36:46;5.82;;;2.17;;
71975;SDS011;68326;52.124;5.424;2023-04-23T09:39:21;7.68;;;2.38;;
71975;SDS011;68326;52.124;5.424;2023-04-23T09:41:52;7.60;;;2.75;;
71975;SDS011;68326;52.124;5.424;2023-04-23T09:44:19;6.10;;;2.10;;
71975;SDS011;68326;52.124;5.424;2023-04-23T09:46:51;6.97;;;2.07;;
71975;SDS011;68326;52.124;5.424;2023-04-23T09:49:18;6.03;;;2.03;;
71975;SDS011;68326;52.124;5.424;2023-04-23T09:51:45;7.25;;;1.83;;
71975;SDS011;68326;52.124;5.424;2023-04-23T09:56:44;4.28;;;1.45;;
71975;SDS011;68326;52.124;5.424;2023-04-23T09:59:33;6.13;;;1.37;;
71975;SDS011;68326;52.124;5.424;2023-04-23T10:02:13;6.15;;;1.30;;
71975;SDS011;68326;52.124;5.424;2023-04-23T10:04:40;3.58;;;1.08;;
71975;SDS011;68326;52.124;5.424;2023-04-23T10:07:07;4.90;;;1.23;;
71975;SDS011;68326;52.124;5.424;2023-04-23T10:09:41;5.57;;;1.42;;
71975;SDS011;68326;52.124;5.424;2023-04-23T10:12:08;4.80;;;1.30;;
71975;SDS011;68326;52.124;5.424;2023-04-23T10:14:55;5.18;;;1.20;;
71975;SDS011;68326;52.124;5.424;2023-04-23T10:17:24;7.10;;;1.40;;
71975;SDS011;68326;52.124;5.424;2023-04-23T10:19:51;9.43;;;1.95;;
71975;SDS011;68326;52.124;5.424;2023-04-23T10:22:18;6.90;;;2.00;;
71975;SDS011;68326;52.124;5.424;2023-04-23T10:24:48;9.43;;;2.07;;
71975;SDS011;68326;52.124;5.424;2023-04-23T10:27:18;3.47;;;1.20;;
71975;SDS011;68326;52.124;5.424;2023-04-23T10:29:50;6.55;;;1.65;;
71975;SDS011;68326;52.124;5.424;2023-04-23T10:32:19;5.97;;;1.20;;
71975;SDS011;68326;52.124;5.424;2023-04-23T10:34:46;7.75;;;1.80;;
71975;SDS011;68326;52.124;5.424;2023-04-23T10:37:13;4.20;;;1.47;;
71975;SDS011;68326;52.124;5.424;2023-04-23T10:39:42;4.00;;;1.30;;
71975;SDS011;68326;52.124;5.424;2023-04-23T10:42:09;4.95;;;0.98;;
71975;SDS011;68326;52.124;5.424;2023-04-23T10:44:38;5.70;;;1.10;;
71975;SDS011;68326;52.124;5.424;2023-04-23T10:47:11;5.28;;;1.08;;
71975;SDS011;68326;52.124;5.424;2023-04-23T10:49:39;5.03;;;0.90;;
71975;SDS011;68326;52.124;5.424;2023-04-23T10:54:47;7.13;;;1.00;;
71975;SDS011;68326;52.124;5.424;2023-04-23T10:57:15;4.90;;;1.48;;
71975;SDS011;68326;52.124;5.424;2023-04-23T10:59:53;6.75;;;1.08;;
71975;SDS011;68326;52.124;5.424;2023-04-23T11:02:24;4.20;;;0.97;;
71975;SDS011;68326;52.124;5.424;2023-04-23T11:04:54;6.35;;;0.77;;
71975;SDS011;68326;52.124;5.424;2023-04-23T11:07:29;6.03;;;0.85;;
71975;SDS011;68326;52.124;5.424;2023-04-23T11:10:10;4.35;;;0.65;;
71975;SDS011;68326;52.124;5.424;2023-04-23T11:12:38;4.72;;;0.90;;
71975;SDS011;68326;52.124;5.424;2023-04-23T11:15:09;4.23;;;0.80;;
71975;SDS011;68326;52.124;5.424;2023-04-23T11:20:10;4.03;;;1.00;;
71975;SDS011;68326;52.124;5.424;2023-04-23T11:22:41;7.03;;;1.33;;
71975;SDS011;68326;52.124;5.424;2023-04-23T11:25:12;5.05;;;0.60;;
71975;SDS011;68326;52.124;5.424;2023-04-23T11:27:43;3.00;;;0.60;;
71975;SDS011;68326;52.124;5.424;2023-04-23T11:30:18;5.93;;;0.73;;
71975;SDS011;68326;52.124;5.424;2023-04-23T11:32:47;3.13;;;0.57;;
71975;SDS011;68326;52.124;5.424;2023-04-23T11:35:15;4.10;;;0.40;;
71975;SDS011;68326;52.124;5.424;2023-04-23T11:37:43;3.42;;;0.63;;
71975;SDS011;68326;52.124;5.424;2023-04-23T11:40:11;3.97;;;0.80;;
71975;SDS011;68326;52.124;5.424;2023-04-23T11:42:53;5.47;;;0.90;;
71975;SDS011;68326;52.124;5.424;2023-04-23T11:45:21;5.47;;;1.15;;
71975;SDS011;68326;52.124;5.424;2023-04-23T11:47:55;3.95;;;0.50;;
71975;SDS011;68326;52.124;5.424;2023-04-23T11:50:24;3.10;;;0.70;;
71975;SDS011;68326;52.124;5.424;2023-04-23T11:53:04;4.07;;;0.50;;
71975;SDS011;68326;52.124;5.424;2023-04-23T11:55:32;4.30;;;1.02;;
71975;SDS011;68326;52.124;5.424;2023-04-23T11:57:58;4.63;;;0.60;;
71975;SDS011;68326;52.124;5.424;2023-04-23T12:00:25;4.00;;;0.70;;
71975;SDS011;68326;52.124;5.424;2023-04-23T12:02:56;3.97;;;0.88;;
71975;SDS011;68326;52.124;5.424;2023-04-23T12:05:32;3.80;;;0.67;;
71975;SDS011;68326;52.124;5.424;2023-04-23T12:08:10;5.75;;;0.73;;
71975;SDS011;68326;52.124;5.424;2023-04-23T12:10:51;5.68;;;0.80;;
71975;SDS011;68326;52.124;5.424;2023-04-23T12:13:29;2.00;;;0.60;;
71975;SDS011;68326;52.124;5.424;2023-04-23T12:15:57;5.78;;;1.00;;
71975;SDS011;68326;52.124;5.424;2023-04-23T12:18:26;3.87;;;0.60;;
71975;SDS011;68326;52.124;5.424;2023-04-23T12:20:54;3.92;;;0.52;;
71975;SDS011;68326;52.124;5.424;2023-04-23T12:23:27;3.67;;;0.60;;
71975;SDS011;68326;52.124;5.424;2023-04-23T12:25:53;2.22;;;0.65;;
71975;SDS011;68326;52.124;5.424;2023-04-23T12:28:23;2.72;;;0.70;;
71975;SDS011;68326;52.124;5.424;2023-04-23T12:30:50;4.20;;;0.73;;
71975;SDS011;68326;52.124;5.424;2023-04-23T12:33:17;6.13;;;0.60;;
71975;SDS011;68326;52.124;5.424;2023-04-23T12:35:44;3.47;;;0.50;;
71975;SDS011;68326;52.124;5.424;2023-04-23T12:38:21;1.42;;;0.60;;
71975;SDS011;68326;52.124;5.424;2023-04-23T12:40:48;3.55;;;0.65;;
71975;SDS011;68326;52.124;5.424;2023-04-23T12:43:15;1.83;;;0.50;;
71975;SDS011;68326;52.124;5.424;2023-04-23T12:45:42;4.60;;;1.05;;
71975;SDS011;68326;52.124;5.424;2023-04-23T12:48:08;1.75;;;0.60;;
71975;SDS011;68326;52.124;5.424;2023-04-23T12:50:35;1.23;;;0.50;;
71975;SDS011;68326;52.124;5.424;2023-04-23T12:53:02;3.30;;;0.80;;
71975;SDS011;68326;52.124;5.424;2023-04-23T12:55:29;3.10;;;0.50;;
71975;SDS011;68326;52.124;5.424;2023-04-23T12:57:56;2.38;;;0.73;;
71975;SDS011;68326;52.124;5.424;2023-04-23T13:00:24;3.47;;;1.05;;
71975;SDS011;68326;52.124;5.424;2023-04-23T13:02:51;2.53;;;0.52;;
71975;SDS011;68326;52.124;5.424;2023-04-23T13:05:17;3.95;;;0.60;;
71975;SDS011;68326;52.124;5.424;2023-04-23T13:07:44;2.27;;;0.90;;
71975;SDS011;68326;52.124;5.424;2023-04-23T13:10:10;4.00;;;0.70;;
71975;SDS011;68326;52.124;5.424;2023-04-23T13:12:37;3.90;;;1.10;;
71975;SDS011;68326;52.124;5.424;2023-04-23T13:15:04;2.28;;;0.63;;
71975;SDS011;68326;52.124;5.424;2023-04-23T13:17:31;3.80;;;0.70;;
71975;SDS011;68326;52.124;5.424;2023-04-23T13:19:58;5.00;;;0.63;;
71975;SDS011;68326;52.124;5.424;2023-04-23T13:22:24;1.63;;;0.50;;
71975;SDS011;68326;52.124;5.424;2023-04-23T13:24:54;2.80;;;0.50;;
71975;SDS011;68326;52.124;5.424;2023-04-23T13:27:26;3.15;;;0.57;;
71975;SDS011;68326;52.124;5.424;2023-04-23T13:29:54;2.35;;;0.50;;
71975;SDS011;68326;52.124;5.424;2023-04-23T13:32:21;1.30;;;0.50;;
71975;SDS011;68326;52.124;5.424;2023-04-23T13:34:53;2.58;;;0.75;;
71975;SDS011;68326;52.124;5.424;2023-04-23T13:37:19;5.45;;;1.15;;
71975;SDS011;68326;52.124;5.424;2023-04-23T13:39:46;4.47;;;0.65;;
71975;SDS011;68326;52.124;5.424;2023-04-23T13:42:13;4.57;;;0.60;;
71975;SDS011;68326;52.124;5.424;2023-04-23T13:44:39;1.40;;;0.50;;
71975;SDS011;68326;52.124;5.424;2023-04-23T13:47:06;1.55;;;0.55;;
71975;SDS011;68326;52.124;5.424;2023-04-23T13:49:32;2.45;;;0.60;;
71975;SDS011;68326;52.124;5.424;2023-04-23T13:51:59;2.97;;;0.60;;
71975;SDS011;68326;52.124;5.424;2023-04-23T13:54:29;1.60;;;0.40;;
71975;SDS011;68326;52.124;5.424;2023-04-23T13:56:55;4.10;;;0.50;;
71975;SDS011;68326;52.124;5.424;2023-04-23T13:59:22;3.10;;;0.47;;
71975;SDS011;68326;52.124;5.424;2023-04-23T14:01:49;1.73;;;0.65;;
71975;SDS011;68326;52.124;5.424;2023-04-23T14:04:16;1.73;;;0.50;;
71975;SDS011;68326;52.124;5.424;2023-04-23T14:06:43;3.70;;;0.60;;
71975;SDS011;68326;52.124;5.424;2023-04-23T14:09:10;1.50;;;0.57;;
71975;SDS011;68326;52.124;5.424;2023-04-23T14:11:37;2.15;;;0.50;;
71975;SDS011;68326;52.124;5.424;2023-04-23T14:14:05;5.07;;;0.70;;
71975;SDS011;68326;52.124;5.424;2023-04-23T14:16:32;2.92;;;0.60;;
71975;SDS011;68326;52.124;5.424;2023-04-23T14:18:59;3.53;;;0.60;;
71975;SDS011;68326;52.124;5.424;2023-04-23T14:21:26;3.07;;;0.50;;
71975;SDS011;68326;52.124;5.424;2023-04-23T14:23:59;4.50;;;0.50;;
71975;SDS011;68326;52.124;5.424;2023-04-23T14:26:42;3.20;;;0.50;;
71975;SDS011;68326;52.124;5.424;2023-04-23T14:29:22;2.72;;;0.80;;
71975;SDS011;68326;52.124;5.424;2023-04-23T14:32:05;2.65;;;0.50;;
71975;SDS011;68326;52.124;5.424;2023-04-23T14:34:32;3.03;;;0.60;;
71975;SDS011;68326;52.124;5.424;2023-04-23T14:37:02;1.90;;;0.47;;
71975;SDS011;68326;52.124;5.424;2023-04-23T14:39:28;1.77;;;0.70;;
71975;SDS011;68326;52.124;5.424;2023-04-23T14:41:55;2.03;;;0.40;;
71975;SDS011;68326;52.124;5.424;2023-04-23T14:44:22;3.25;;;0.60;;
71975;SDS011;68326;52.124;5.424;2023-04-23T14:46:48;3.73;;;0.70;;